Airfield :
LOGIN :

Register | Disclaimer

   EN    FR    IT 

 










Legend :    VFR   Marginal VFR   IFR   Intensive IFR   Very Intensive IFR
Visi :
Ceiling :
>= 8 km
>= 3000ft
5 to 8 km
1000 to 3000 ft
1500m to 5 km
500 to 1000 ft
800 to 1500m
200 to 500 ft
< 800m
< 200 ft
Symbols :   Thunderstorms  Fog  Heavy snow  Heavy precipitations  Wind > 20 kt
SIGMETs :     Misc.  Thunderstorms  Icing  Turbulence  Mountain Waves  Volcanic Ashes






- Airport Elevation : 1079 ft


ETIK - Illesheim Air Base

CURRENT METAR :
  • 140556Z AUTO 00000KT 9999 CLR 08/08 A3003 RMK AO2 SLP168 T00800080 10140 20080 51007 $

EXPIRED METARs :
  • 140456Z AUTO 00000KT 9999 CLR 09/09 A3002 RMK AO2 SLP163 T00900090 $
  • 140356Z AUTO 00000KT 9999 CLR 09/09 A3002 RMK AO2 SLP162 T00880088 $
  • 140256Z AUTO 00000KT 9999 CLR 10/10 A3001 RMK AO2 SLP157 T00990099 50000 $

TAF AMD TAF ETIK
Valid from the 14 at 04:00 until the 15 at 04:00 UTC


140432Z 1404/1504 VRB06KT 9999 SKC QNH2984INS
BECMG 1500/1501 VRB06KT 8000 BR FEW040 QNH2981INS TX22/1412Z TN08/1406Z



MET'MAP, your aeronautical weather chart ! - Copyright ORBIFLY December 2007 - Disclaimer

ORBIFLY MET'MAP TEAM :

Programming & Development : Alexandra Zaïnal
Concept & Development : Baudouin d'Aumeries
Co-Development & Prog : Marc-Olivier Méhu
Technical & hardware support : Manuel Goepfert

Contact : metmap@orbifly.com




SOURCES & CREDITS :

   NOAA